createdAt,value
2023-12-11T00:01:35.258Z,1.10
2023-12-11T00:04:02.187Z,1.10
2023-12-11T00:06:28.751Z,1.70
2023-12-11T00:08:55.323Z,1.40
2023-12-11T00:11:22.382Z,1.05
2023-12-11T00:13:48.865Z,1.83
2023-12-11T00:16:18.498Z,1.30
2023-12-11T00:18:45.364Z,1.05
2023-12-11T00:21:12.014Z,1.02
2023-12-11T00:23:38.736Z,1.70
2023-12-11T00:26:05.198Z,1.23
2023-12-11T00:28:31.712Z,1.48
2023-12-11T00:30:58.401Z,0.95
2023-12-11T00:33:24.947Z,1.20
2023-12-11T00:35:51.537Z,1.52
2023-12-11T00:38:18.066Z,1.30
2023-12-11T00:40:46.540Z,1.17
2023-12-11T00:43:13.295Z,1.30
2023-12-11T00:45:39.921Z,1.55
2023-12-11T00:48:06.762Z,1.30
2023-12-11T00:50:35.103Z,1.58
2023-12-11T00:53:01.640Z,1.45
2023-12-11T00:55:28.062Z,1.23
2023-12-11T00:57:54.631Z,1.65
2023-12-11T01:00:21.491Z,1.58
2023-12-11T01:02:48.174Z,2.42
2023-12-11T01:05:14.848Z,1.42
2023-12-11T01:07:41.286Z,2.00
2023-12-11T01:10:09.105Z,2.50
2023-12-11T01:12:36.994Z,1.85
2023-12-11T01:15:03.770Z,2.03
2023-12-11T01:17:38.677Z,3.38
2023-12-11T01:20:07.980Z,1.50
2023-12-11T01:22:34.490Z,2.03
2023-12-11T01:25:03.505Z,1.55
2023-12-11T01:27:30.480Z,1.70
2023-12-11T01:29:57.229Z,1.75
2023-12-11T01:32:23.685Z,1.85
2023-12-11T01:34:50.157Z,2.08
2023-12-11T01:37:17.648Z,1.60
2023-12-11T01:39:44.119Z,1.45
2023-12-11T01:42:10.581Z,1.55
2023-12-11T01:44:37.259Z,1.60
2023-12-11T01:47:03.946Z,2.03
2023-12-11T01:49:30.614Z,1.55
2023-12-11T01:51:57.145Z,1.55
2023-12-11T01:54:23.735Z,2.78
2023-12-11T01:56:50.203Z,1.73
2023-12-11T01:59:16.956Z,1.70
2023-12-11T02:01:44.950Z,1.98
2023-12-11T02:04:11.655Z,1.63
2023-12-11T02:06:38.272Z,1.92
2023-12-11T02:09:05.119Z,3.88
2023-12-11T02:11:31.741Z,1.92
2023-12-11T02:13:58.184Z,1.80
2023-12-11T02:16:24.662Z,1.63
2023-12-11T02:18:51.263Z,2.00
2023-12-11T02:21:18.187Z,2.15
2023-12-11T02:23:57.087Z,2.03
2023-12-11T02:26:23.876Z,1.38
2023-12-11T02:28:50.302Z,2.20
2023-12-11T02:31:16.835Z,1.98
2023-12-11T02:33:43.495Z,1.92
2023-12-11T02:36:10.036Z,1.48
2023-12-11T02:38:36.496Z,2.10
2023-12-11T02:41:03.221Z,1.75
2023-12-11T02:43:29.658Z,1.77
2023-12-11T02:45:56.219Z,2.45
2023-12-11T02:48:22.831Z,2.03
2023-12-11T02:50:49.400Z,1.90
2023-12-11T02:53:15.894Z,1.48
2023-12-11T02:55:42.802Z,1.40
2023-12-11T02:58:09.493Z,1.45
2023-12-11T03:00:37.133Z,1.58
2023-12-11T03:03:04.685Z,1.27
2023-12-11T03:05:31.161Z,1.50
2023-12-11T03:07:57.576Z,1.50
2023-12-11T03:10:30.435Z,1.98
2023-12-11T03:12:56.947Z,1.83
2023-12-11T03:15:23.466Z,1.60
2023-12-11T03:17:49.958Z,2.42
2023-12-11T03:20:16.618Z,2.13
2023-12-11T03:22:43.262Z,1.70
2023-12-11T03:25:09.896Z,1.38
2023-12-11T03:27:36.522Z,2.08
2023-12-11T03:30:03.856Z,2.22
2023-12-11T03:32:31.070Z,1.88
2023-12-11T03:34:57.791Z,1.55
2023-12-11T03:37:24.612Z,1.50
2023-12-11T03:39:51.209Z,1.60
2023-12-11T03:42:17.692Z,1.98
2023-12-11T03:44:44.243Z,1.90
2023-12-11T03:47:10.744Z,1.08
2023-12-11T03:49:37.353Z,1.73
2023-12-11T03:52:04.245Z,1.40
2023-12-11T03:54:30.878Z,1.73
2023-12-11T03:56:57.538Z,1.60
2023-12-11T03:59:24.238Z,1.58
2023-12-11T04:01:50.840Z,1.60
2023-12-11T04:04:17.419Z,1.80
2023-12-11T04:06:44.019Z,1.50
2023-12-11T04:09:10.474Z,2.03
2023-12-11T04:11:37.218Z,1.52
2023-12-11T04:14:03.820Z,1.55
2023-12-11T04:16:30.575Z,2.00
2023-12-11T04:19:00.332Z,1.55
2023-12-11T04:21:27.507Z,1.85
2023-12-11T04:23:56.155Z,1.80
2023-12-11T04:26:22.604Z,1.45
2023-12-11T04:28:49.040Z,2.03
2023-12-11T04:31:15.508Z,1.95
2023-12-11T04:33:42.213Z,1.70
2023-12-11T04:36:09.710Z,1.73
2023-12-11T04:38:36.365Z,1.55
2023-12-11T04:41:03.737Z,1.90
2023-12-11T04:43:31.827Z,1.65
2023-12-11T04:45:58.794Z,1.48
2023-12-11T04:48:25.388Z,1.52
2023-12-11T04:50:51.968Z,1.30
2023-12-11T04:53:18.440Z,1.42
2023-12-11T04:55:45.177Z,1.70
2023-12-11T04:58:11.710Z,2.42
2023-12-11T05:00:38.446Z,1.85
2023-12-11T05:03:04.995Z,1.98
2023-12-11T05:05:31.582Z,1.90
2023-12-11T05:07:58.251Z,2.08
2023-12-11T05:10:24.669Z,2.67
2023-12-11T05:12:51.114Z,2.05
2023-12-11T05:15:17.589Z,1.65
2023-12-11T05:17:44.347Z,1.90
2023-12-11T05:20:13.804Z,2.00
2023-12-11T05:22:40.271Z,2.17
2023-12-11T05:25:07.467Z,1.42
2023-12-11T05:27:34.275Z,1.60
2023-12-11T05:30:00.827Z,2.90
2023-12-11T05:32:27.621Z,1.45
2023-12-11T05:34:54.234Z,1.67
2023-12-11T05:37:21.357Z,1.80
2023-12-11T05:39:57.454Z,1.92
2023-12-11T05:42:34.170Z,2.17
2023-12-11T05:45:00.646Z,1.50
2023-12-11T05:47:27.165Z,1.90
2023-12-11T05:49:53.828Z,1.92
2023-12-11T05:52:20.401Z,1.75
2023-12-11T05:54:46.880Z,1.60
2023-12-11T05:57:13.320Z,1.58
2023-12-11T05:59:39.851Z,1.55
2023-12-11T06:02:06.250Z,1.40
2023-12-11T06:04:33.909Z,1.40
2023-12-11T06:07:00.426Z,1.70
2023-12-11T06:09:26.851Z,1.45
2023-12-11T06:11:53.318Z,1.70
2023-12-11T06:14:19.772Z,1.58
2023-12-11T06:16:46.219Z,1.70
2023-12-11T06:19:12.728Z,1.77
2023-12-11T06:21:41.886Z,1.42
2023-12-11T06:24:08.470Z,2.28
2023-12-11T06:26:37.868Z,1.77
2023-12-11T06:29:04.295Z,2.13
2023-12-11T06:31:31.513Z,1.27
2023-12-11T06:33:58.314Z,1.23
2023-12-11T06:36:26.638Z,1.10
2023-12-11T06:38:53.052Z,1.58
2023-12-11T06:41:19.756Z,1.67
2023-12-11T06:43:53.500Z,1.55
2023-12-11T06:46:20.355Z,1.65
2023-12-11T06:48:46.917Z,2.55
2023-12-11T06:51:16.496Z,1.42
2023-12-11T06:53:43.071Z,1.30
2023-12-11T06:56:09.945Z,1.77
2023-12-11T06:58:36.428Z,1.85
2023-12-11T07:01:03.133Z,1.70
2023-12-11T07:03:29.678Z,1.42
2023-12-11T07:05:56.370Z,0.98
2023-12-11T07:08:22.836Z,2.13
2023-12-11T07:10:49.269Z,1.30
2023-12-11T07:13:15.805Z,1.27
2023-12-11T07:15:42.433Z,1.50
2023-12-11T07:18:11.678Z,1.50
2023-12-11T07:20:38.593Z,1.90
2023-12-11T07:23:06.893Z,1.73
2023-12-11T07:25:33.390Z,1.30
2023-12-11T07:27:59.922Z,1.48
2023-12-11T07:30:27.206Z,1.00
2023-12-11T07:32:53.754Z,2.30
2023-12-11T07:35:20.189Z,1.48
2023-12-11T07:37:46.592Z,1.23
2023-12-11T07:40:13.176Z,1.60
2023-12-11T07:42:39.688Z,1.17
2023-12-11T07:45:06.741Z,1.05
2023-12-11T07:47:33.837Z,1.00
2023-12-11T07:50:04.496Z,1.30
2023-12-11T07:52:31.706Z,1.65
2023-12-11T07:55:01.264Z,1.25
2023-12-11T07:57:30.134Z,1.77
2023-12-11T07:59:56.792Z,1.10
2023-12-11T08:02:23.284Z,1.27
2023-12-11T08:04:49.893Z,1.52
2023-12-11T08:07:17.167Z,1.10
2023-12-11T08:09:44.027Z,1.20
2023-12-11T08:12:10.869Z,1.45
2023-12-11T08:14:39.622Z,1.25
2023-12-11T08:17:07.328Z,1.52
2023-12-11T08:19:36.890Z,1.70
2023-12-11T08:22:04.486Z,1.50
2023-12-11T08:24:31.149Z,1.35
2023-12-11T08:26:57.667Z,1.38
2023-12-11T08:29:24.292Z,1.27
2023-12-11T08:31:50.958Z,1.75
2023-12-11T08:34:19.960Z,1.40
2023-12-11T08:36:46.525Z,1.65
2023-12-11T08:39:13.417Z,1.52
2023-12-11T08:41:39.833Z,1.35
2023-12-11T08:44:07.012Z,1.83
2023-12-11T08:46:33.494Z,1.52
2023-12-11T08:49:00.164Z,1.60
2023-12-11T08:51:26.806Z,2.08
2023-12-11T08:53:53.288Z,1.23
2023-12-11T08:56:21.073Z,1.58
2023-12-11T08:58:47.818Z,2.13
2023-12-11T09:01:14.737Z,1.60
2023-12-11T09:03:41.419Z,1.50
2023-12-11T09:06:08.282Z,1.52
2023-12-11T09:08:34.788Z,1.80
2023-12-11T09:11:01.208Z,1.50
2023-12-11T09:13:29.607Z,2.22
2023-12-11T09:15:56.907Z,1.55
2023-12-11T09:18:23.732Z,1.67
2023-12-11T09:20:50.644Z,1.98
2023-12-11T09:23:17.214Z,1.40
2023-12-11T09:25:44.430Z,1.30
2023-12-11T09:28:11.086Z,2.72
2023-12-11T09:30:37.688Z,2.15
2023-12-11T09:33:04.217Z,1.35
2023-12-11T09:35:30.884Z,1.70
2023-12-11T09:37:57.395Z,2.03
2023-12-11T09:40:23.839Z,1.42
2023-12-11T09:42:51.965Z,1.70
2023-12-11T09:45:20.818Z,1.73
2023-12-11T09:48:00.169Z,2.03
2023-12-11T09:50:37.885Z,2.25
2023-12-11T09:53:04.677Z,1.33
2023-12-11T09:55:31.131Z,1.65
2023-12-11T09:57:58.117Z,1.40
2023-12-11T10:00:25.356Z,2.08
2023-12-11T10:02:53.105Z,1.35
2023-12-11T10:05:26.827Z,1.50
2023-12-11T10:07:53.552Z,2.00
2023-12-11T10:10:28.973Z,1.40
2023-12-11T10:12:56.415Z,1.25
2023-12-11T10:15:32.168Z,2.08
2023-12-11T10:18:10.915Z,1.50
2023-12-11T10:20:39.412Z,1.30
2023-12-11T10:23:19.579Z,2.33
2023-12-11T10:25:48.835Z,1.70
2023-12-11T10:28:17.981Z,1.65
2023-12-11T10:30:55.682Z,1.85
2023-12-11T10:33:24.915Z,1.58
2023-12-11T10:35:52.124Z,1.40
2023-12-11T10:38:26.922Z,1.88
2023-12-11T10:40:54.844Z,1.60
2023-12-11T10:43:21.695Z,1.35
2023-12-11T10:45:51.426Z,1.25
2023-12-11T10:48:20.744Z,1.17
2023-12-11T10:50:48.390Z,1.60
2023-12-11T10:53:16.464Z,1.55
2023-12-11T10:55:44.172Z,1.30
2023-12-11T10:58:10.879Z,1.70
2023-12-11T11:00:39.368Z,1.35
2023-12-11T11:03:09.804Z,1.30
2023-12-11T11:05:36.522Z,2.08
2023-12-11T11:08:08.977Z,1.80
2023-12-11T11:10:55.701Z,1.27
2023-12-11T11:13:27.967Z,1.85
2023-12-11T11:15:55.340Z,2.30
2023-12-11T11:18:22.024Z,1.67
2023-12-11T11:21:11.540Z,2.67
2023-12-11T11:23:46.835Z,1.63
2023-12-11T11:26:36.431Z,1.83
2023-12-11T11:29:04.956Z,1.52
2023-12-11T11:31:51.823Z,1.25
2023-12-11T11:34:43.614Z,2.10
2023-12-11T11:37:19.071Z,1.42
2023-12-11T11:39:59.141Z,1.38
2023-12-11T11:42:32.589Z,1.48
2023-12-11T11:45:04.356Z,1.55
2023-12-11T11:47:32.549Z,3.33
2023-12-11T11:50:17.294Z,1.50
2023-12-11T11:52:44.960Z,1.60
2023-12-11T11:55:18.174Z,1.10
2023-12-11T11:57:44.726Z,1.52
2023-12-11T12:00:11.532Z,1.40
2023-12-11T12:02:37.965Z,1.75
2023-12-11T12:05:11.169Z,0.98
2023-12-11T12:07:42.194Z,0.90
2023-12-11T12:10:12.633Z,1.10
2023-12-11T12:12:39.538Z,1.63
2023-12-11T12:15:08.934Z,1.40
2023-12-11T12:17:36.678Z,1.40
2023-12-11T12:20:20.253Z,1.48
2023-12-11T12:22:57.812Z,1.25
2023-12-11T12:25:24.379Z,1.60
2023-12-11T12:27:54.277Z,1.23
2023-12-11T12:30:21.495Z,1.60
2023-12-11T12:32:50.879Z,1.00
2023-12-11T12:35:19.427Z,1.38
2023-12-11T12:37:47.396Z,1.73
2023-12-11T12:40:14.434Z,1.60
2023-12-11T12:42:41.180Z,1.05
2023-12-11T12:45:08.509Z,1.40
2023-12-11T12:47:44.858Z,1.42
2023-12-11T12:50:23.498Z,1.17
2023-12-11T12:52:50.067Z,1.67
2023-12-11T12:55:16.742Z,1.85
2023-12-11T12:57:44.800Z,1.65
2023-12-11T13:00:21.641Z,1.45
2023-12-11T13:02:49.664Z,1.75
2023-12-11T13:07:57.790Z,1.58
2023-12-11T13:10:24.490Z,1.05
2023-12-11T13:12:51.246Z,1.50
2023-12-11T13:15:18.324Z,1.63
2023-12-11T13:17:51.327Z,1.20
2023-12-11T13:20:20.914Z,2.00
2023-12-11T13:22:49.185Z,1.50
2023-12-11T13:25:19.081Z,1.52
2023-12-11T13:27:47.974Z,1.50
2023-12-11T13:30:20.354Z,1.50
2023-12-11T13:32:47.598Z,1.50
2023-12-11T13:35:14.166Z,1.60
2023-12-11T13:37:40.797Z,1.30
2023-12-11T13:40:08.168Z,2.00
2023-12-11T13:42:35.391Z,2.72
2023-12-11T13:45:01.906Z,2.00
2023-12-11T13:47:29.700Z,1.75
2023-12-11T13:49:56.887Z,1.60
2023-12-11T13:52:23.544Z,1.60
2023-12-11T13:54:51.473Z,1.50
2023-12-11T13:57:21.377Z,2.50
2023-12-11T13:59:50.214Z,3.47
2023-12-11T14:02:17.726Z,2.53
2023-12-11T14:05:05.231Z,1.83
2023-12-11T14:07:32.406Z,1.60
2023-12-11T14:10:00.652Z,2.00
2023-12-11T14:12:27.237Z,2.13
2023-12-11T14:14:53.896Z,2.00
2023-12-11T14:17:20.577Z,2.05
2023-12-11T14:19:49.692Z,2.83
2023-12-11T14:22:17.195Z,2.63
2023-12-11T14:24:45.227Z,1.80
2023-12-11T14:27:12.276Z,2.80
2023-12-11T14:29:38.935Z,2.53
2023-12-11T14:32:05.574Z,1.70
2023-12-11T14:34:32.194Z,2.10
2023-12-11T14:36:58.836Z,1.65
2023-12-11T14:39:25.430Z,3.00
2023-12-11T14:41:51.905Z,1.80
2023-12-11T14:44:19.296Z,1.50
2023-12-11T14:46:45.754Z,1.52
2023-12-11T14:49:12.790Z,1.20
2023-12-11T14:51:40.821Z,1.35
2023-12-11T14:54:08.541Z,1.17
2023-12-11T14:56:35.889Z,1.45
2023-12-11T14:59:02.444Z,1.17
2023-12-11T15:01:28.988Z,1.08
2023-12-11T15:03:55.877Z,1.25
2023-12-11T15:06:23.253Z,1.20
2023-12-11T15:08:50.833Z,0.90
2023-12-11T15:11:18.256Z,0.90
2023-12-11T15:13:45.111Z,1.00
2023-12-11T15:16:12.605Z,1.13
2023-12-11T15:18:42.322Z,1.05
2023-12-11T15:21:14.838Z,1.20
2023-12-11T15:23:41.293Z,1.00
2023-12-11T15:26:07.928Z,1.50
2023-12-11T15:28:34.438Z,1.00
2023-12-11T15:31:12.931Z,1.20
2023-12-11T15:33:41.797Z,1.33
2023-12-11T15:36:15.377Z,1.00
2023-12-11T15:38:43.198Z,1.10
2023-12-11T15:41:10.517Z,1.15
2023-12-11T15:43:37.130Z,1.20
2023-12-11T15:46:10.944Z,1.40
2023-12-11T15:48:38.639Z,1.85
2023-12-11T15:51:18.993Z,1.67
2023-12-11T15:53:46.841Z,1.20
2023-12-11T15:56:16.577Z,1.20
2023-12-11T15:58:43.745Z,1.63
2023-12-11T16:01:11.472Z,1.10
2023-12-11T16:03:39.310Z,1.50
2023-12-11T16:06:06.218Z,1.50
2023-12-11T16:08:32.727Z,1.05
2023-12-11T16:10:59.446Z,1.48
2023-12-11T16:13:26.063Z,1.30
2023-12-11T16:15:52.687Z,1.23
2023-12-11T16:18:19.492Z,1.48
2023-12-11T16:20:46.230Z,1.42
2023-12-11T16:23:12.797Z,1.50
2023-12-11T16:25:50.545Z,1.65
2023-12-11T16:28:22.870Z,1.60
2023-12-11T16:30:49.810Z,2.25
2023-12-11T16:33:17.368Z,1.92
2023-12-11T16:35:43.993Z,2.30
2023-12-11T16:38:10.578Z,1.80
2023-12-11T16:40:37.083Z,1.90
2023-12-11T16:43:03.923Z,1.88
2023-12-11T16:45:30.460Z,1.92
2023-12-11T16:47:57.119Z,2.05
2023-12-11T16:50:24.729Z,1.95
2023-12-11T16:52:51.442Z,2.15
2023-12-11T16:55:18.413Z,2.03
2023-12-11T16:57:45.440Z,2.33
2023-12-11T17:00:12.636Z,3.15
2023-12-11T17:02:39.393Z,2.15
2023-12-11T17:05:07.181Z,2.92
2023-12-11T17:07:33.771Z,2.83
2023-12-11T17:10:00.566Z,3.20
2023-12-11T17:12:29.185Z,3.10
2023-12-11T17:14:57.525Z,2.80
2023-12-11T17:17:24.599Z,2.83
2023-12-11T17:19:51.509Z,2.88
2023-12-11T17:22:18.257Z,3.03
2023-12-11T17:24:44.948Z,2.90
2023-12-11T17:27:11.472Z,2.90
2023-12-11T17:29:39.368Z,3.15
2023-12-11T17:32:07.063Z,4.05
2023-12-11T17:34:34.453Z,2.65
2023-12-11T17:37:00.956Z,2.85
2023-12-11T17:39:27.527Z,3.00
2023-12-11T17:41:54.230Z,2.90
2023-12-11T17:44:21.082Z,2.22
2023-12-11T17:46:47.649Z,2.53
2023-12-11T17:49:14.388Z,2.08
2023-12-11T17:51:40.908Z,2.10
2023-12-11T17:54:07.548Z,2.33
2023-12-11T17:56:34.021Z,2.03
2023-12-11T17:59:00.414Z,2.22
2023-12-11T18:01:27.078Z,2.15
2023-12-11T18:03:54.122Z,1.95
2023-12-11T18:06:20.961Z,2.58
2023-12-11T18:08:47.729Z,1.60
2023-12-11T18:11:14.278Z,1.98
2023-12-11T18:13:41.054Z,1.70
2023-12-11T18:16:08.064Z,1.70
2023-12-11T18:18:35.379Z,2.25
2023-12-11T18:21:02.708Z,2.00
2023-12-11T18:23:29.386Z,1.98
2023-12-11T18:25:55.842Z,2.70
2023-12-11T18:28:23.147Z,2.38
2023-12-11T18:30:49.776Z,3.10
2023-12-11T18:33:16.751Z,5.05
2023-12-11T18:35:44.066Z,5.50
2023-12-11T18:38:11.110Z,5.53
2023-12-11T18:40:37.996Z,4.25
2023-12-11T18:43:04.570Z,4.40
2023-12-11T18:45:31.061Z,4.18
2023-12-11T18:47:58.721Z,3.47
2023-12-11T18:50:25.195Z,3.15
2023-12-11T18:52:54.009Z,3.00
2023-12-11T18:55:22.300Z,3.67
2023-12-11T18:57:49.010Z,2.95
2023-12-11T19:00:15.910Z,2.58
2023-12-11T19:02:43.409Z,3.00
2023-12-11T19:05:10.938Z,2.65
2023-12-11T19:07:38.713Z,2.90
2023-12-11T19:10:05.575Z,3.05
2023-12-11T19:12:32.046Z,2.35
2023-12-11T19:14:58.607Z,3.13
2023-12-11T19:17:25.217Z,2.40
2023-12-11T19:19:51.957Z,2.60
2023-12-11T19:22:18.397Z,2.92
2023-12-11T19:24:45.071Z,2.50
2023-12-11T19:27:11.549Z,2.10
2023-12-11T19:29:38.200Z,2.20
2023-12-11T19:32:05.626Z,2.45
2023-12-11T19:34:32.378Z,3.60
2023-12-11T19:37:00.870Z,2.13
2023-12-11T19:39:27.667Z,2.53
2023-12-11T19:41:54.516Z,2.50
2023-12-11T19:44:21.327Z,1.88
2023-12-11T19:46:48.022Z,2.45
2023-12-11T19:49:15.015Z,2.00
2023-12-11T19:51:43.936Z,2.25
2023-12-11T19:54:11.877Z,2.38
2023-12-11T19:56:38.465Z,2.28
2023-12-11T19:59:08.272Z,1.92
2023-12-11T20:01:34.958Z,1.98
2023-12-11T20:04:01.831Z,2.60
2023-12-11T20:06:29.336Z,1.88
2023-12-11T20:08:55.861Z,1.60
2023-12-11T20:11:22.498Z,2.25
2023-12-11T20:13:50.808Z,2.17
2023-12-11T20:16:18.280Z,2.20
2023-12-11T20:18:45.523Z,1.95
2023-12-11T20:21:12.188Z,2.08
2023-12-11T20:23:38.725Z,1.75
2023-12-11T20:26:06.526Z,1.75
2023-12-11T20:28:33.786Z,1.77
2023-12-11T20:31:00.422Z,2.05
2023-12-11T20:33:26.937Z,2.13
2023-12-11T20:35:56.146Z,1.40
2023-12-11T20:38:23.055Z,1.92
2023-12-11T20:40:49.693Z,2.85
2023-12-11T20:43:17.030Z,2.00
2023-12-11T20:45:45.684Z,2.63
2023-12-11T20:48:12.222Z,2.25
2023-12-11T20:50:38.914Z,2.33
2023-12-11T20:53:05.354Z,2.25
2023-12-11T20:55:32.536Z,2.40
2023-12-11T20:57:58.999Z,2.30
2023-12-11T21:00:25.595Z,1.88
2023-12-11T21:02:52.565Z,2.30
2023-12-11T21:05:19.307Z,2.20
2023-12-11T21:07:45.876Z,2.10
2023-12-11T21:10:12.621Z,1.73
2023-12-11T21:12:39.376Z,2.38
2023-12-11T21:15:06.577Z,2.08
2023-12-11T21:17:33.329Z,2.50
2023-12-11T21:20:00.458Z,2.10
2023-12-11T21:22:27.342Z,2.30
2023-12-11T21:24:53.957Z,1.92
2023-12-11T21:27:20.482Z,2.20
2023-12-11T21:29:47.096Z,2.25
2023-12-11T21:32:13.675Z,2.28
2023-12-11T21:34:43.718Z,2.22
2023-12-11T21:37:11.076Z,2.47
2023-12-11T21:39:37.710Z,2.22
2023-12-11T21:42:05.262Z,1.95
2023-12-11T21:44:32.216Z,2.67
2023-12-11T21:46:59.266Z,2.35
2023-12-11T21:49:26.112Z,2.55
2023-12-11T21:52:15.712Z,2.15
2023-12-11T21:54:42.301Z,2.08
2023-12-11T21:57:08.907Z,2.42
2023-12-11T21:59:42.494Z,1.60
2023-12-11T22:02:14.322Z,1.90
2023-12-11T22:04:40.818Z,1.73
2023-12-11T22:07:07.407Z,2.08
2023-12-11T22:09:33.840Z,1.52
2023-12-11T22:12:00.252Z,1.85
2023-12-11T22:14:26.875Z,2.40
2023-12-11T22:16:53.389Z,2.50
2023-12-11T22:19:20.013Z,2.28
2023-12-11T22:21:46.652Z,1.60
2023-12-11T22:24:14.675Z,2.30
2023-12-11T22:26:42.010Z,2.10
2023-12-11T22:29:08.668Z,2.85
2023-12-11T22:31:38.019Z,1.70
2023-12-11T22:34:04.634Z,2.30
2023-12-11T22:36:31.379Z,1.73
2023-12-11T22:38:57.948Z,1.88
2023-12-11T22:41:28.916Z,1.75
2023-12-11T22:43:55.582Z,2.78
2023-12-11T22:46:22.278Z,1.73
2023-12-11T22:48:48.938Z,1.98
2023-12-11T22:51:15.785Z,1.60
2023-12-11T22:53:42.220Z,1.77
2023-12-11T22:56:12.038Z,1.65
2023-12-11T22:58:38.513Z,1.88
2023-12-11T23:01:05.132Z,1.92
2023-12-11T23:03:31.634Z,1.70
2023-12-11T23:05:59.263Z,1.55
2023-12-11T23:08:27.396Z,2.40
2023-12-11T23:10:54.707Z,1.83
2023-12-11T23:13:21.173Z,1.88
2023-12-11T23:15:51.007Z,1.40
2023-12-11T23:18:17.510Z,1.63
2023-12-11T23:20:44.212Z,1.58
2023-12-11T23:23:11.938Z,1.80
2023-12-11T23:25:43.253Z,1.80
2023-12-11T23:28:16.545Z,1.60
2023-12-11T23:30:43.388Z,1.70
2023-12-11T23:33:10.087Z,1.58
2023-12-11T23:35:36.760Z,2.28
2023-12-11T23:38:03.215Z,2.08
2023-12-11T23:40:29.897Z,2.03
2023-12-11T23:42:56.367Z,2.03
2023-12-11T23:45:23.371Z,1.98
2023-12-11T23:47:49.922Z,2.13
2023-12-11T23:50:16.639Z,1.75
2023-12-11T23:52:43.085Z,1.67
2023-12-11T23:55:09.813Z,1.92
2023-12-11T23:57:36.613Z,2.28
